createdAt,value
2018-03-07T00:00:38.723Z,988.05
2018-03-07T00:01:38.688Z,988.07
2018-03-07T00:03:35.151Z,988.07
2018-03-07T00:04:35.155Z,988.04
2018-03-07T00:06:30.541Z,988.09
2018-03-07T00:07:30.553Z,988.08
2018-03-07T00:09:26.541Z,988.07
2018-03-07T00:10:26.506Z,988.04
2018-03-07T00:12:22.465Z,988.04
2018-03-07T00:13:22.955Z,988.05
2018-03-07T00:15:18.391Z,988.06
2018-03-07T00:16:18.381Z,988.03
2018-03-07T00:18:14.335Z,988.04
2018-03-07T00:19:14.308Z,988.05
2018-03-07T00:21:10.221Z,988.05
2018-03-07T00:22:10.218Z,988.06
2018-03-07T00:24:06.658Z,988.03
2018-03-07T00:25:06.153Z,988.07
2018-03-07T00:27:02.077Z,988.09
2018-03-07T00:28:02.585Z,988.08
2018-03-07T00:29:59.528Z,988.05
2018-03-07T00:30:58.034Z,988.09
2018-03-07T00:32:53.963Z,988.08
2018-03-07T00:33:53.954Z,988.11
2018-03-07T00:35:49.890Z,988.16
2018-03-07T00:36:49.909Z,988.12
2018-03-07T00:38:46.331Z,988.17
2018-03-07T00:39:45.825Z,988.14
2018-03-07T00:41:41.745Z,988.14
2018-03-07T00:42:41.732Z,988.18
2018-03-07T00:44:37.720Z,988.12
2018-03-07T00:45:37.689Z,988.15
2018-03-07T00:47:34.141Z,988.17
2018-03-07T00:48:33.620Z,988.19
2018-03-07T00:50:30.588Z,988.16
2018-03-07T00:51:29.581Z,988.19
2018-03-07T00:53:26.018Z,988.14
2018-03-07T00:54:25.610Z,988.13
2018-03-07T00:56:21.458Z,988.10
2018-03-07T00:57:21.445Z,988.12
2018-03-07T00:59:17.383Z,988.09
2018-03-07T01:00:17.381Z,988.08
2018-03-07T01:02:13.340Z,988.03
2018-03-07T01:03:13.310Z,988.04
2018-03-07T01:05:10.788Z,988.07
2018-03-07T01:06:09.260Z,988.06
2018-03-07T01:08:04.635Z,988.05
2018-03-07T01:09:03.718Z,988.07
2018-03-07T01:10:59.645Z,988.07
2018-03-07T01:12:00.157Z,988.03
2018-03-07T01:13:57.523Z,988.08
2018-03-07T01:14:56.091Z,988.06
2018-03-07T01:16:51.495Z,988.04
2018-03-07T01:17:51.494Z,988.04
2018-03-07T01:19:47.946Z,988.02
2018-03-07T01:20:47.409Z,988.01
2018-03-07T01:22:43.349Z,988.03
2018-03-07T01:23:43.355Z,988.05
2018-03-07T01:25:39.281Z,988.07
2018-03-07T01:26:39.295Z,988.04
2018-03-07T01:28:37.256Z,988.04
2018-03-07T01:29:37.190Z,988.06
2018-03-07T01:31:34.170Z,988.08
2018-03-07T01:32:33.152Z,988.07
2018-03-07T01:34:30.086Z,988.06
2018-03-07T01:35:29.085Z,988.05
2018-03-07T01:37:26.022Z,988.07
2018-03-07T01:38:25.023Z,988.04
2018-03-07T01:40:22.481Z,988.08
2018-03-07T01:41:21.470Z,988.09
2018-03-07T01:43:16.906Z,988.04
2018-03-07T01:44:16.901Z,988.07
2018-03-07T01:46:12.854Z,988.08
2018-03-07T01:47:12.823Z,988.08
2018-03-07T01:49:08.780Z,988.12
2018-03-07T01:50:08.710Z,988.09
2018-03-07T01:52:05.171Z,988.11
2018-03-07T01:53:04.665Z,988.09
2018-03-07T01:55:00.585Z,988.08
2018-03-07T01:56:00.587Z,988.09
2018-03-07T01:57:56.511Z,988.02
2018-03-07T01:58:56.511Z,988.01
2018-03-07T02:00:52.959Z,988.00
2018-03-07T02:01:52.439Z,987.97
2018-03-07T02:03:48.382Z,987.99
2018-03-07T02:04:48.386Z,988.03
2018-03-07T02:06:44.350Z,987.97
2018-03-07T02:07:44.315Z,987.98
2018-03-07T02:09:40.275Z,987.94
2018-03-07T02:10:40.755Z,987.89
2018-03-07T02:12:36.165Z,987.88
2018-03-07T02:13:36.159Z,987.93
2018-03-07T02:15:32.608Z,987.90
2018-03-07T02:16:32.091Z,987.92
2018-03-07T02:18:28.058Z,987.90
2018-03-07T02:19:28.027Z,987.88
2018-03-07T02:21:23.958Z,987.92
2018-03-07T02:22:23.937Z,987.86
2018-03-07T02:24:20.354Z,987.88
2018-03-07T02:25:19.842Z,987.82
2018-03-07T02:27:15.774Z,987.87
2018-03-07T02:28:15.780Z,987.90
2018-03-07T02:30:11.719Z,987.90
2018-03-07T02:31:11.709Z,987.91
2018-03-07T02:33:07.677Z,987.92
2018-03-07T02:34:07.635Z,987.94
2018-03-07T02:36:04.101Z,987.97
2018-03-07T02:37:03.574Z,987.97
2018-03-07T02:39:00.027Z,987.99
2018-03-07T02:39:59.470Z,988.00
2018-03-07T02:41:55.447Z,987.97
2018-03-07T02:42:55.422Z,987.94
2018-03-07T02:44:51.419Z,987.91
2018-03-07T02:45:51.901Z,987.93
2018-03-07T02:47:48.264Z,987.92
2018-03-07T02:48:47.845Z,987.92
2018-03-07T02:50:43.290Z,987.92
2018-03-07T02:51:43.768Z,987.93
2018-03-07T02:53:39.722Z,987.93
2018-03-07T02:54:39.184Z,987.89
2018-03-07T02:56:35.624Z,987.86
2018-03-07T02:57:35.144Z,987.89
2018-03-07T02:59:31.104Z,987.88
2018-03-07T03:00:31.624Z,987.87
2018-03-07T03:02:28.028Z,987.90
2018-03-07T03:03:27.523Z,987.94
2018-03-07T03:05:23.435Z,987.92
2018-03-07T03:06:22.922Z,987.96
2018-03-07T03:08:18.890Z,987.98
2018-03-07T03:09:19.353Z,987.95
2018-03-07T03:11:15.283Z,987.94
2018-03-07T03:12:15.758Z,987.94
2018-03-07T03:14:10.710Z,988.00
2018-03-07T03:15:11.229Z,987.99
2018-03-07T03:17:07.162Z,988.02
2018-03-07T03:18:06.620Z,988.02
2018-03-07T03:20:03.068Z,988.04
2018-03-07T03:21:02.548Z,988.04
2018-03-07T03:23:00.033Z,988.04
2018-03-07T03:23:58.504Z,988.03
2018-03-07T03:25:54.476Z,988.00
2018-03-07T03:26:54.458Z,988.03
2018-03-07T03:28:50.909Z,988.03
2018-03-07T03:29:50.375Z,988.02
2018-03-07T03:31:46.815Z,988.01
2018-03-07T03:32:46.818Z,988.05
2018-03-07T03:34:42.746Z,988.04
2018-03-07T03:35:42.252Z,988.07
2018-03-07T03:37:38.194Z,988.07
2018-03-07T03:38:39.674Z,988.04
2018-03-07T03:40:34.625Z,988.05
2018-03-07T03:41:34.098Z,988.05
2018-03-07T03:43:30.044Z,988.07
2018-03-07T03:44:30.035Z,988.09
2018-03-07T03:46:26.490Z,988.08
2018-03-07T03:47:25.978Z,988.09
2018-03-07T03:49:21.893Z,988.09
2018-03-07T03:50:21.894Z,988.05
2018-03-07T03:52:17.857Z,988.07
2018-03-07T03:53:17.818Z,988.07
2018-03-07T03:55:13.792Z,988.07
2018-03-07T03:56:14.277Z,988.01
2018-03-07T03:58:10.707Z,988.06
2018-03-07T03:59:09.676Z,988.10
2018-03-07T04:01:06.127Z,988.08
2018-03-07T04:02:06.133Z,988.06
2018-03-07T04:04:01.534Z,988.05
2018-03-07T04:05:01.543Z,988.05
2018-03-07T04:06:57.501Z,988.07
2018-03-07T04:07:57.453Z,988.08
2018-03-07T04:09:53.380Z,988.01
2018-03-07T04:10:53.391Z,988.03
2018-03-07T04:12:49.844Z,988.09
2018-03-07T04:13:49.320Z,988.11
2018-03-07T04:15:45.281Z,988.07
2018-03-07T04:16:45.248Z,988.11
2018-03-07T04:18:41.223Z,988.11
2018-03-07T04:19:41.155Z,988.11
2018-03-07T04:21:37.600Z,988.12
2018-03-07T04:22:37.120Z,988.13
2018-03-07T04:24:33.043Z,988.11
2018-03-07T04:25:33.582Z,988.12
2018-03-07T04:27:28.972Z,988.09
2018-03-07T04:28:28.957Z,988.11
2018-03-07T04:30:25.410Z,988.14
2018-03-07T04:31:24.896Z,988.12
2018-03-07T04:33:21.821Z,988.15
2018-03-07T04:34:20.822Z,988.19
2018-03-07T04:36:17.269Z,988.16
2018-03-07T04:37:16.737Z,988.19
2018-03-07T04:39:14.704Z,988.15
2018-03-07T04:40:15.194Z,988.12
2018-03-07T04:42:11.116Z,988.16
2018-03-07T04:43:10.605Z,988.15
2018-03-07T04:45:06.573Z,988.13
2018-03-07T04:46:06.525Z,988.13
2018-03-07T04:48:02.480Z,988.10
2018-03-07T04:49:02.511Z,988.11
2018-03-07T04:50:58.919Z,988.09
2018-03-07T04:51:58.408Z,988.14
2018-03-07T04:53:54.343Z,988.23
2018-03-07T04:54:54.850Z,988.34
2018-03-07T04:56:53.288Z,988.36
2018-03-07T04:57:52.366Z,988.37
2018-03-07T04:59:48.334Z,988.33
2018-03-07T05:00:48.293Z,988.35
2018-03-07T05:02:44.849Z,988.41
2018-03-07T05:03:44.231Z,988.39
2018-03-07T05:05:41.091Z,988.40
2018-03-07T05:06:40.659Z,988.40
2018-03-07T05:08:36.594Z,988.45
2018-03-07T05:09:36.062Z,988.46
2018-03-07T05:11:31.976Z,988.45
2018-03-07T05:12:32.002Z,988.43
2018-03-07T05:14:29.424Z,988.41
2018-03-07T05:15:29.435Z,988.36
2018-03-07T05:17:23.850Z,988.39
2018-03-07T05:18:23.850Z,988.36
2018-03-07T05:20:20.724Z,988.30
2018-03-07T05:21:19.774Z,988.30
2018-03-07T05:23:15.742Z,988.32
2018-03-07T05:24:15.694Z,988.27
2018-03-07T05:26:11.661Z,988.30
2018-03-07T05:27:11.642Z,988.25
2018-03-07T05:29:07.596Z,988.31
2018-03-07T05:30:07.576Z,988.28
2018-03-07T05:32:03.537Z,988.29
2018-03-07T05:33:04.020Z,988.32
2018-03-07T05:34:59.948Z,988.31
2018-03-07T05:35:59.441Z,988.27
2018-03-07T05:37:55.868Z,988.24
2018-03-07T05:38:55.370Z,988.21
2018-03-07T05:40:51.328Z,988.19
2018-03-07T05:41:51.306Z,988.17
2018-03-07T05:43:47.744Z,988.16
2018-03-07T05:44:47.234Z,988.11
2018-03-07T05:46:43.189Z,988.11
2018-03-07T05:47:43.172Z,988.10
2018-03-07T05:49:41.117Z,988.12
2018-03-07T05:50:41.625Z,988.07
2018-03-07T05:52:37.074Z,988.09
2018-03-07T05:53:37.066Z,988.06
2018-03-07T05:55:34.513Z,988.08
2018-03-07T05:56:33.012Z,988.14
2018-03-07T05:58:28.959Z,988.17
2018-03-07T05:59:28.897Z,988.19
2018-03-07T06:01:25.843Z,988.21
2018-03-07T06:02:25.347Z,988.20
2018-03-07T06:04:23.281Z,988.22
2018-03-07T06:05:23.281Z,988.20
2018-03-07T06:07:20.220Z,988.23
2018-03-07T06:08:19.726Z,988.23
2018-03-07T06:10:15.665Z,988.25
2018-03-07T06:11:15.638Z,988.27
2018-03-07T06:13:14.589Z,988.32
2018-03-07T06:14:13.584Z,988.31
2018-03-07T06:16:09.524Z,988.38
2018-03-07T06:17:09.505Z,988.41
2018-03-07T06:19:05.429Z,988.42
2018-03-07T06:20:05.405Z,988.43
2018-03-07T06:22:01.888Z,988.36
2018-03-07T06:23:01.864Z,988.40
2018-03-07T06:24:59.328Z,988.43
2018-03-07T06:25:59.798Z,988.48
2018-03-07T06:27:55.715Z,988.44
2018-03-07T06:28:55.181Z,988.44
2018-03-07T06:30:51.106Z,988.52
2018-03-07T06:31:51.642Z,988.49
2018-03-07T06:33:47.066Z,988.46
2018-03-07T06:34:47.078Z,988.49
2018-03-07T06:36:42.995Z,988.54
2018-03-07T06:37:43.007Z,988.54
2018-03-07T06:39:38.977Z,988.57
2018-03-07T06:40:38.927Z,988.55
2018-03-07T06:42:34.834Z,988.62
2018-03-07T06:43:34.853Z,988.67
2018-03-07T06:45:30.796Z,988.71
2018-03-07T06:46:31.300Z,988.74
2018-03-07T06:48:27.721Z,988.83
2018-03-07T06:49:27.226Z,988.86
2018-03-07T06:51:22.637Z,988.88
2018-03-07T06:52:22.624Z,988.89
2018-03-07T06:54:19.077Z,988.84
2018-03-07T06:55:18.586Z,988.86
2018-03-07T06:57:14.527Z,988.80
2018-03-07T06:58:15.020Z,988.85
2018-03-07T07:00:10.448Z,988.90
2018-03-07T07:01:10.429Z,988.90
2018-03-07T07:03:06.374Z,988.95
2018-03-07T07:04:06.867Z,988.96
2018-03-07T07:06:04.271Z,988.92
2018-03-07T07:07:04.276Z,988.91
2018-03-07T07:09:02.253Z,988.99
2018-03-07T07:10:02.726Z,988.95
2018-03-07T07:11:58.668Z,989.00
2018-03-07T07:12:58.114Z,989.01
2018-03-07T07:14:54.060Z,989.06
2018-03-07T07:15:54.564Z,989.04
2018-03-07T07:17:50.475Z,989.05
2018-03-07T07:18:49.948Z,989.06
2018-03-07T07:20:47.879Z,989.07
2018-03-07T07:21:47.871Z,989.10
2018-03-07T07:23:43.802Z,989.13
2018-03-07T07:24:44.319Z,989.14
2018-03-07T07:26:39.756Z,989.06
2018-03-07T07:27:40.235Z,989.14
2018-03-07T07:29:37.685Z,989.25
2018-03-07T07:30:37.647Z,989.33
2018-03-07T07:32:35.586Z,989.34
2018-03-07T07:33:35.580Z,989.28
2018-03-07T07:35:31.502Z,989.25
2018-03-07T07:36:31.524Z,989.28
2018-03-07T07:38:29.486Z,989.29
2018-03-07T07:39:29.421Z,989.26
2018-03-07T07:41:27.358Z,989.30
2018-03-07T07:42:27.358Z,989.30
2018-03-07T07:44:23.812Z,989.32
2018-03-07T07:45:23.264Z,989.27
2018-03-07T07:47:19.233Z,989.29
2018-03-07T07:48:19.196Z,989.30
2018-03-07T07:50:16.150Z,989.32
2018-03-07T07:51:15.166Z,989.28
2018-03-07T07:53:12.098Z,989.33
2018-03-07T07:54:11.070Z,989.28
2018-03-07T07:56:07.542Z,989.27
2018-03-07T07:57:07.513Z,989.28
2018-03-07T07:59:03.472Z,989.32
2018-03-07T08:00:02.886Z,989.37
2018-03-07T08:01:59.369Z,989.37
2018-03-07T08:02:58.825Z,989.39
2018-03-07T08:04:56.757Z,989.43
2018-03-07T08:05:56.801Z,989.46
2018-03-07T08:07:52.711Z,989.46
2018-03-07T08:08:52.676Z,989.43
2018-03-07T08:10:51.123Z,989.43
2018-03-07T08:11:50.600Z,989.44
2018-03-07T08:13:48.570Z,989.44
2018-03-07T08:14:48.542Z,989.49
2018-03-07T08:16:46.981Z,989.53
2018-03-07T08:17:46.467Z,989.52
2018-03-07T08:19:44.444Z,989.52
2018-03-07T08:20:44.382Z,989.52
2018-03-07T08:22:40.845Z,989.55
2018-03-07T08:23:40.316Z,989.53
2018-03-07T08:25:36.275Z,989.54
2018-03-07T08:26:36.764Z,989.54
2018-03-07T08:28:32.220Z,989.55
2018-03-07T08:29:32.175Z,989.55
2018-03-07T08:33:04.769Z,989.59
2018-03-07T08:34:04.765Z,989.59
2018-03-07T08:36:01.205Z,989.59
2018-03-07T08:37:00.668Z,989.60
2018-03-07T08:38:58.648Z,989.62
2018-03-07T08:39:58.571Z,989.61
2018-03-07T08:41:54.490Z,989.65
2018-03-07T08:42:54.490Z,989.66
2018-03-07T08:44:51.448Z,989.65
2018-03-07T08:45:50.432Z,989.62
2018-03-07T08:47:48.430Z,989.63
2018-03-07T08:48:48.372Z,989.64
2018-03-07T08:50:46.326Z,989.66
2018-03-07T08:51:46.820Z,989.65
2018-03-07T08:53:45.668Z,989.62
2018-03-07T08:54:44.740Z,989.61
2018-03-07T08:56:40.664Z,989.60
2018-03-07T08:57:40.149Z,989.63
2018-03-07T08:59:36.624Z,989.63
2018-03-07T09:00:36.128Z,989.68
2018-03-07T09:02:32.037Z,989.68
2018-03-07T09:03:32.555Z,989.71
2018-03-07T09:05:28.510Z,989.75
2018-03-07T09:06:28.015Z,989.75
2018-03-07T09:08:26.029Z,989.73
2018-03-07T09:09:26.039Z,989.74
2018-03-07T09:11:21.964Z,989.78
2018-03-07T09:12:21.963Z,989.73
2018-03-07T09:14:17.940Z,989.76
2018-03-07T09:15:17.900Z,989.77
2018-03-07T09:17:15.852Z,989.79
2018-03-07T09:18:15.826Z,989.81
2018-03-07T09:20:12.286Z,989.84
2018-03-07T09:21:11.751Z,989.85
2018-03-07T09:23:07.692Z,989.86
2018-03-07T09:24:07.679Z,989.89
2018-03-07T09:26:04.132Z,989.89
2018-03-07T09:27:03.623Z,989.90
2018-03-07T09:29:00.577Z,989.93
2018-03-07T09:30:00.082Z,989.91
2018-03-07T09:31:55.999Z,989.93
2018-03-07T09:32:55.504Z,989.97
2018-03-07T09:34:51.488Z,990.03
2018-03-07T09:35:51.960Z,990.02
2018-03-07T09:37:49.904Z,990.06
2018-03-07T09:38:49.358Z,990.07
2018-03-07T09:40:45.875Z,990.05
2018-03-07T09:41:45.312Z,990.04
2018-03-07T09:43:41.279Z,990.07
2018-03-07T09:44:41.256Z,990.04
2018-03-07T09:46:37.722Z,990.06
2018-03-07T09:47:37.188Z,990.13
2018-03-07T09:49:34.082Z,990.14
2018-03-07T09:50:33.698Z,990.07
2018-03-07T09:52:29.087Z,990.07
2018-03-07T09:53:29.065Z,990.10
2018-03-07T09:55:25.046Z,990.09
2018-03-07T09:56:25.068Z,990.10
2018-03-07T09:58:20.922Z,990.09
2018-03-07T09:59:22.400Z,990.15
2018-03-07T10:01:16.887Z,990.18
2018-03-07T10:02:16.892Z,990.17
2018-03-07T10:04:13.831Z,990.20
2018-03-07T10:05:12.820Z,990.19
2018-03-07T10:07:09.821Z,990.23
2018-03-07T10:08:09.327Z,990.23
2018-03-07T10:10:02.210Z,990.25
2018-03-07T10:11:02.188Z,990.23
2018-03-07T10:12:59.642Z,990.24
2018-03-07T10:13:58.139Z,990.22
2018-03-07T10:15:53.604Z,990.24
2018-03-07T10:16:52.559Z,990.26
2018-03-07T10:18:48.494Z,990.23
2018-03-07T10:19:48.506Z,990.25
2018-03-07T10:21:44.445Z,990.24
2018-03-07T10:22:46.005Z,990.26
2018-03-07T10:24:40.409Z,990.25
2018-03-07T10:25:40.344Z,990.26
2018-03-07T10:27:36.297Z,990.28
2018-03-07T10:28:36.361Z,990.32
2018-03-07T10:30:31.681Z,990.30
2018-03-07T10:31:30.725Z,990.33
2018-03-07T10:33:26.654Z,990.30
2018-03-07T10:34:26.689Z,990.33
2018-03-07T10:36:22.661Z,990.29
2018-03-07T10:37:22.622Z,990.34
2018-03-07T10:39:18.599Z,990.36
2018-03-07T10:40:18.585Z,990.36
2018-03-07T10:42:15.024Z,990.31
2018-03-07T10:43:14.530Z,990.39
2018-03-07T10:45:08.964Z,990.42
2018-03-07T10:46:08.966Z,990.41
2018-03-07T10:48:05.418Z,990.43
2018-03-07T10:49:04.918Z,990.34
2018-03-07T10:51:01.373Z,990.40
2018-03-07T10:52:00.868Z,990.41
2018-03-07T10:53:58.295Z,990.41
2018-03-07T10:54:56.780Z,990.41
2018-03-07T10:56:52.753Z,990.40
2018-03-07T10:57:52.705Z,990.40
2018-03-07T10:59:48.686Z,990.43
2018-03-07T11:00:48.656Z,990.43
2018-03-07T11:02:44.631Z,990.46
2018-03-07T11:03:44.585Z,990.45
2018-03-07T11:05:41.540Z,990.47
2018-03-07T11:06:40.566Z,990.50
2018-03-07T11:08:35.000Z,990.51
2018-03-07T11:09:35.516Z,990.48
2018-03-07T11:11:30.884Z,990.46
2018-03-07T11:12:30.920Z,990.49
2018-03-07T11:14:25.323Z,990.49
2018-03-07T11:15:25.332Z,990.50
2018-03-07T11:17:21.286Z,990.49
2018-03-07T11:18:21.822Z,990.45
2018-03-07T11:20:17.222Z,990.43
2018-03-07T11:21:17.208Z,990.42
2018-03-07T11:23:13.699Z,990.41
2018-03-07T11:24:13.150Z,990.44
2018-03-07T11:26:09.120Z,990.43
2018-03-07T11:27:09.108Z,990.45
2018-03-07T11:29:05.039Z,990.46
2018-03-07T11:30:05.577Z,990.43
2018-03-07T11:32:00.970Z,990.44
2018-03-07T11:33:00.941Z,990.43
2018-03-07T11:34:57.401Z,990.45
2018-03-07T11:35:56.876Z,990.46
2018-03-07T11:37:52.809Z,990.37
2018-03-07T11:38:53.334Z,990.38
2018-03-07T11:40:48.766Z,990.40
2018-03-07T11:41:48.735Z,990.38
2018-03-07T11:43:44.692Z,990.38
2018-03-07T11:44:44.695Z,990.36
2018-03-07T11:46:40.634Z,990.38
2018-03-07T11:47:40.634Z,990.38
2018-03-07T11:49:35.069Z,990.37
2018-03-07T11:50:35.587Z,990.35
2018-03-07T11:52:31.051Z,990.39
2018-03-07T11:53:31.038Z,990.37
2018-03-07T11:55:26.975Z,990.39
2018-03-07T11:56:27.481Z,990.38
2018-03-07T11:58:23.435Z,990.38
2018-03-07T11:59:22.893Z,990.36
2018-03-07T12:01:17.360Z,990.37
2018-03-07T12:02:17.841Z,990.39
2018-03-07T12:04:13.792Z,990.33
2018-03-07T12:05:13.280Z,990.37
2018-03-07T12:07:09.267Z,990.31
2018-03-07T12:08:09.227Z,990.33
2018-03-07T12:10:05.157Z,990.33
2018-03-07T12:11:05.146Z,990.27
2018-03-07T12:13:01.099Z,990.30
2018-03-07T12:14:01.084Z,990.31
2018-03-07T12:15:57.000Z,990.30
2018-03-07T12:16:57.034Z,990.34
2018-03-07T12:18:52.924Z,990.36
2018-03-07T12:19:52.925Z,990.40
2018-03-07T12:21:47.358Z,990.38
2018-03-07T12:22:47.354Z,990.37
2018-03-07T12:24:43.373Z,990.37
2018-03-07T12:25:43.827Z,990.32
2018-03-07T12:27:39.760Z,990.33
2018-03-07T12:28:39.279Z,990.33
2018-03-07T12:30:35.230Z,990.29
2018-03-07T12:31:35.197Z,990.33
2018-03-07T12:33:29.647Z,990.32
2018-03-07T12:34:29.627Z,990.35
2018-03-07T12:36:25.592Z,990.29
2018-03-07T12:37:26.105Z,990.32
2018-03-07T12:39:22.523Z,990.33
2018-03-07T12:40:21.511Z,990.35
2018-03-07T12:42:15.987Z,990.40
2018-03-07T12:43:15.963Z,990.38
2018-03-07T12:45:12.416Z,990.42
2018-03-07T12:46:11.903Z,990.38
2018-03-07T12:48:08.365Z,990.41
2018-03-07T12:49:07.799Z,990.31
2018-03-07T12:51:02.274Z,990.36
2018-03-07T12:52:00.801Z,990.30
2018-03-07T12:53:54.752Z,990.30
2018-03-07T12:54:54.246Z,990.32
2018-03-07T12:56:50.155Z,990.35
2018-03-07T12:57:50.711Z,990.29
2018-03-07T12:59:44.665Z,990.30
2018-03-07T13:00:44.598Z,990.31
2018-03-07T13:02:40.561Z,990.28
2018-03-07T13:03:40.548Z,990.34
2018-03-07T13:05:36.528Z,990.31
2018-03-07T13:06:36.515Z,990.28
2018-03-07T13:08:31.475Z,990.30
2018-03-07T13:09:31.880Z,990.28
2018-03-07T13:11:26.875Z,990.30
2018-03-07T13:12:26.834Z,990.31
2018-03-07T13:14:22.764Z,990.29
2018-03-07T13:15:22.785Z,990.32
2018-03-07T13:17:19.668Z,990.33
2018-03-07T13:18:19.241Z,990.31
2018-03-07T13:20:13.170Z,990.32
2018-03-07T13:21:13.136Z,990.38
2018-03-07T13:23:08.094Z,990.37
2018-03-07T13:24:07.586Z,990.38
2018-03-07T13:26:04.030Z,990.36
2018-03-07T13:27:03.528Z,990.39
2018-03-07T13:28:56.955Z,990.36
2018-03-07T13:29:57.495Z,990.38
2018-03-07T13:31:51.355Z,990.34
2018-03-07T13:32:51.367Z,990.35
2018-03-07T13:34:47.331Z,990.34
2018-03-07T13:35:47.817Z,990.32
2018-03-07T13:37:43.758Z,990.35
2018-03-07T13:38:43.225Z,990.35
2018-03-07T13:40:37.669Z,990.34
2018-03-07T13:41:37.664Z,990.32
2018-03-07T13:43:32.622Z,990.35
2018-03-07T13:44:32.625Z,990.36
2018-03-07T13:46:27.077Z,990.37
2018-03-07T13:47:26.560Z,990.38
2018-03-07T13:49:21.516Z,990.35
2018-03-07T13:50:20.975Z,990.37
2018-03-07T13:52:16.925Z,990.36
2018-03-07T13:53:17.441Z,990.38
2018-03-07T13:55:11.874Z,990.39
2018-03-07T13:56:11.364Z,990.36
2018-03-07T13:58:04.773Z,990.44
2018-03-07T13:59:04.765Z,990.41
2018-03-07T14:00:59.209Z,990.44
2018-03-07T14:01:59.213Z,990.42
2018-03-07T14:03:55.675Z,990.47
2018-03-07T14:04:55.147Z,990.47
2018-03-07T14:06:49.584Z,990.48
2018-03-07T14:07:49.581Z,990.48
2018-03-07T14:09:44.572Z,990.45
2018-03-07T14:10:44.041Z,990.45
2018-03-07T14:12:38.521Z,990.41
2018-03-07T14:13:38.494Z,990.40
2018-03-07T14:15:35.448Z,990.44
2018-03-07T14:16:34.958Z,990.49
2018-03-07T14:18:30.389Z,990.47
2018-03-07T14:19:30.345Z,990.46
2018-03-07T14:21:26.807Z,990.41
2018-03-07T14:22:26.300Z,990.44
2018-03-07T14:24:20.767Z,990.48
2018-03-07T14:25:20.738Z,990.47
2018-03-07T14:27:17.196Z,990.40
2018-03-07T14:28:17.633Z,990.48
2018-03-07T14:30:12.593Z,990.44
2018-03-07T14:31:12.599Z,990.44
2018-03-07T14:33:07.191Z,990.46
2018-03-07T14:34:07.181Z,990.40
2018-03-07T14:36:03.110Z,990.43
2018-03-07T14:37:03.643Z,990.44
2018-03-07T14:38:59.047Z,990.51
2018-03-07T14:39:59.039Z,990.48
2018-03-07T14:41:55.485Z,990.47
2018-03-07T14:42:54.970Z,990.49
2018-03-07T14:44:49.409Z,990.45
2018-03-07T14:45:49.393Z,990.50
2018-03-07T14:47:46.361Z,990.47
2018-03-07T14:50:08.493Z,990.41
2018-03-07T14:50:59.810Z,990.46
2018-03-07T14:52:57.258Z,990.48
2018-03-07T14:53:55.211Z,990.55
2018-03-07T14:55:49.679Z,990.57
2018-03-07T14:58:09.626Z,990.56
2018-03-07T14:59:09.370Z,990.53
2018-03-07T15:01:06.511Z,990.52
2018-03-07T15:02:06.533Z,990.52
2018-03-07T15:04:02.464Z,990.54
2018-03-07T15:05:02.972Z,990.53
2018-03-07T15:07:22.318Z,990.48
2018-03-07T15:08:22.348Z,990.50
2018-03-07T15:10:18.784Z,990.52
2018-03-07T15:11:19.773Z,990.55
2018-03-07T15:13:14.182Z,990.51
2018-03-07T15:14:14.193Z,990.48
2018-03-07T15:16:10.171Z,990.48
2018-03-07T15:17:10.646Z,990.54
2018-03-07T15:19:06.076Z,990.51
2018-03-07T15:20:06.060Z,990.50
2018-03-07T15:22:02.017Z,990.48
2018-03-07T15:24:18.240Z,990.51
2018-03-07T15:25:17.930Z,990.49
2018-03-07T15:27:14.897Z,990.54
2018-03-07T15:29:37.938Z,990.54
2018-03-07T15:30:33.971Z,990.53
2018-03-07T15:32:28.810Z,990.56
2018-03-07T15:33:28.298Z,990.59
2018-03-07T15:35:25.916Z,990.61
2018-03-07T15:36:24.261Z,990.57
2018-03-07T15:38:21.697Z,990.60
2018-03-07T15:39:20.191Z,990.66
2018-03-07T15:41:16.614Z,990.69
2018-03-07T15:42:16.110Z,990.68
2018-03-07T15:44:12.053Z,990.75
2018-03-07T15:45:12.062Z,990.71
2018-03-07T15:47:08.517Z,990.76
2018-03-07T15:48:08.002Z,990.76
2018-03-07T15:50:03.931Z,990.80
2018-03-07T15:51:03.926Z,990.82
2018-03-07T15:52:58.877Z,990.86
2018-03-07T15:53:58.357Z,990.84
2018-03-07T15:55:56.294Z,990.87
2018-03-07T15:56:56.301Z,990.91
2018-03-07T15:58:52.748Z,990.91
2018-03-07T15:59:52.215Z,990.88
2018-03-07T16:01:47.182Z,990.89
2018-03-07T16:02:46.732Z,990.92
2018-03-07T16:04:42.200Z,990.90
2018-03-07T16:05:41.698Z,990.91
2018-03-07T16:07:37.119Z,990.94
2018-03-07T16:08:37.112Z,990.92
2018-03-07T16:10:31.576Z,990.97
2018-03-07T16:11:31.549Z,990.99
2018-03-07T16:13:28.489Z,990.97
2018-03-07T16:14:27.487Z,990.94
2018-03-07T16:16:22.939Z,991.00
2018-03-07T16:17:21.934Z,990.98
2018-03-07T16:19:17.904Z,991.06
2018-03-07T16:20:18.393Z,991.04
2018-03-07T16:22:13.792Z,991.08
2018-03-07T16:23:14.377Z,991.07
2018-03-07T16:25:15.276Z,991.04
2018-03-07T16:26:09.782Z,991.10
2018-03-07T16:28:05.734Z,991.04
2018-03-07T16:29:06.736Z,991.11
2018-03-07T16:31:03.195Z,991.08
2018-03-07T16:32:01.714Z,991.08
2018-03-07T16:33:58.639Z,991.09
2018-03-07T16:34:58.126Z,991.11
2018-03-07T16:36:52.111Z,991.15
2018-03-07T16:37:52.598Z,991.12
2018-03-07T16:39:48.027Z,991.17
2018-03-07T16:40:47.988Z,991.17
2018-03-07T16:42:42.940Z,991.17
2018-03-07T16:43:42.935Z,991.20
2018-03-07T16:45:38.390Z,991.21
2018-03-07T16:46:38.358Z,991.22
2018-03-07T16:48:34.365Z,991.22
2018-03-07T16:51:30.198Z,991.26
2018-03-07T16:52:30.185Z,991.26
2018-03-07T16:54:24.625Z,991.30
2018-03-07T16:55:24.623Z,991.33
2018-03-07T16:57:19.098Z,991.35
2018-03-07T16:58:19.069Z,991.36
2018-03-07T17:00:13.517Z,991.35
2018-03-07T17:01:13.498Z,991.32
2018-03-07T17:03:09.956Z,991.37
2018-03-07T17:04:09.448Z,991.30
2018-03-07T17:06:07.522Z,991.34
2018-03-07T17:07:07.546Z,991.42
2018-03-07T17:09:01.958Z,991.41
2018-03-07T17:10:01.954Z,991.40
2018-03-07T17:11:58.908Z,991.44
2018-03-07T17:12:57.897Z,991.53
2018-03-07T17:14:53.850Z,991.47
2018-03-07T17:15:53.861Z,991.51
2018-03-07T17:18:02.380Z,991.53
2018-03-07T17:19:00.936Z,991.51
2018-03-07T17:21:56.095Z,991.57
2018-03-07T17:22:56.206Z,991.58
2018-03-07T17:25:41.311Z,991.61
2018-03-07T17:26:14.302Z,991.64
2018-03-07T17:28:20.500Z,991.63
2018-03-07T17:29:21.287Z,991.71
2018-03-07T17:31:14.981Z,991.72
2018-03-07T17:32:14.955Z,991.74
2018-03-07T17:34:10.863Z,991.77
2018-03-07T17:35:10.882Z,991.75
2018-03-07T17:37:06.250Z,991.87
2018-03-07T17:38:05.368Z,991.92
2018-03-07T17:40:03.336Z,991.92
2018-03-07T17:41:03.354Z,991.97
2018-03-07T17:42:58.302Z,992.02
2018-03-07T17:43:57.787Z,992.05
2018-03-07T17:45:53.815Z,992.11
2018-03-07T17:46:53.738Z,992.11
2018-03-07T17:48:49.647Z,992.17
2018-03-07T17:49:49.657Z,992.16
2018-03-07T17:51:46.082Z,992.19
2018-03-07T17:52:45.564Z,992.22
2018-03-07T17:54:41.504Z,992.26
2018-03-07T17:55:42.006Z,992.28
2018-03-07T17:57:35.916Z,992.25
2018-03-07T17:58:35.925Z,992.28
2018-03-07T18:00:32.873Z,992.29
2018-03-07T18:01:31.867Z,992.33
2018-03-07T18:03:28.819Z,992.38
2018-03-07T18:04:27.823Z,992.38
2018-03-07T18:06:24.768Z,992.39
2018-03-07T18:07:24.306Z,992.40
2018-03-07T18:09:19.689Z,992.43
2018-03-07T18:10:19.701Z,992.43
2018-03-07T18:12:15.079Z,992.44
2018-03-07T18:13:14.137Z,992.42
2018-03-07T18:15:10.587Z,992.45
2018-03-07T18:16:10.584Z,992.46
2018-03-07T18:18:06.500Z,992.48
2018-03-07T18:19:06.016Z,992.47
2018-03-07T18:21:02.958Z,992.53
2018-03-07T18:22:01.964Z,992.49
2018-03-07T18:23:56.365Z,992.56
2018-03-07T18:24:56.375Z,992.57